Flight Track Log - Related Links

Times and Time Zones

All times are in EDT time to prevent confusion due to time zone crossing. See the KAP927 flight status page for this flight to view local times or setup timezone preferences in your user account.

Time Position Orientation Groundspeed Altitude Reporting Facility
EDT Latitude Longitude Course Direction KTS MPH feet Rate Location/Type
Thu 01:42:56 PM 42.3667 -71.0167 236° Southwest 119 137 400  Level KA90
Thu 01:44:08 PM 42.3500 -71.0500 236° Southwest 94 108 1,100 609 Climbing KA90
Thu 01:45:14 PM 42.3500 -71.1000 270° West 100 115 1,800 571 Climbing KA90
Thu 01:46:14 PM 42.3667 -71.1333 304° West 116 133 2,300 476 Climbing KA90
Thu 01:47:20 PM 42.3667 -71.1833 270° West 115 132 2,800 381 Climbing KA90
Thu 01:48:20 PM 42.3667 -71.2333 270° West 122 140 3,100 316 Climbing KA90
Thu 01:49:14 PM 42.3833 -71.2667 304° West 128 147 3,400 263 Climbing KA90
Thu 01:50:14 PM 42.3833 -71.3167 270° West 135 155 3,600 350 Climbing KA90
Thu 01:51:14 PM 42.3833 -71.3667 270° West 127 146 4,100 650 Climbing KA90
Thu 01:52:14 PM 42.3833 -71.4167 270° West 108 124 4,900 600 Climbing KA90
Thu 01:53:14 PM 42.3833 -71.4500 270° West 103 119 5,300 524 Climbing KA90
Thu 01:54:20 PM 42.3833 -71.5000 270° West 111 128 6,000 571 Climbing KA90
Thu 01:55:20 PM 42.4000 -71.5333 304° West 108 124 6,500 500 Climbing KA90
Thu 01:56:20 PM 42.4000 -71.5667 270° West 111 128 7,000 422 Climbing KA90
Thu 01:58:25 PM 42.4103 -71.6528 279° West 106 122 7,800 459 Climbing Boston Center
Thu 01:59:23 PM 42.4167 -71.6978 281° West 106 122 8,400 350 Climbing Boston Center
Thu 02:00:25 PM 42.4211 -71.7425 278° West 116 133 8,500 49 Climbing Boston Center
Thu 02:01:25 PM 42.4319 -71.7931 286° West 133 153 8,500  Level Boston Center
Thu 02:02:24 PM 42.4406 -71.8408 284° West 146 168 8,500  Level Boston Center
Thu 02:03:25 PM 42.4492 -71.9028 281° West 146 168 8,500  Level Boston Center
Thu 02:04:22 PM 42.4578 -71.9475 285° West 146 168 8,500 51 Level Boston Center
Thu 02:05:23 PM 42.4703 -72.0011 288° West 141 162 8,600  Climbing Boston Center
Thu 02:06:24 PM 42.4831 -72.0489 290° West 141 162 8,500 -50 Descending Boston Center
Thu 02:07:24 PM 42.4894 -72.0967 280° West 141 162 8,500  Level Boston Center
Thu 02:08:22 PM 42.4981 -72.1472 283° West 141 162 8,500 50 Level Boston Center
Thu 02:09:24 PM 42.5106 -72.1950 290° West 141 162 8,600  Climbing Boston Center
Thu 02:10:24 PM 42.5253 -72.2428 293° West 141 162 8,500 -50 Descending Boston Center
Thu 02:11:25 PM 42.5358 -72.2936 286° West 146 168 8,500 51 Level Boston Center
Thu 02:12:22 PM 42.5358 -72.3414 270° West 140 161 8,600 51 Climbing Boston Center
Thu 02:13:23 PM 42.5358 -72.3894 270° West 140 161 8,600  Level Boston Center
Thu 02:14:23 PM 42.5400 -72.4400 276° West 140 161 8,600 -50 Level Boston Center
Thu 02:15:24 PM 42.5464 -72.4881 280° West 140 161 8,500 -50 Descending Boston Center
Thu 02:16:24 PM 42.5544 -72.5417 282° West 140 161 8,500 -50 Level Boston Center
Thu 02:17:25 PM 42.5650 -72.5922 286° West 145 167 8,400 -151 Descending Boston Center
Thu 02:18:23 PM 42.5753 -72.6458 285° West 145 167 8,200 -353 Descending Boston Center
Thu 02:19:24 PM 42.5836 -72.7022 281° West 157 181 7,700 -446 Descending Boston Center
Thu 02:20:24 PM 42.5939 -72.7617 283° West 162 186 7,300 -555 Descending Boston Center
Thu 02:21:23 PM 42.6019 -72.8264 280° West 167 192 6,600 -550 Descending Boston Center
Thu 02:22:24 PM 42.6119 -72.8942 281° West 174 200 6,200 -393 Descending Boston Center
Thu 02:23:25 PM 42.6203 -72.9564 280° West 179 206 5,800 -303 Descending Boston Center
Thu 02:24:23 PM 42.6283 -73.0100 282° West 174 200 5,600 -203 Descending Boston Center
Thu 02:25:23 PM 42.6383 -73.0750 282° West 163 188 5,400 -100 Descending Boston Center
Thu 02:26:23 PM 42.6464 -73.1261 282° West 158 182 5,400 -98 Level Boston Center
Thu 02:27:25 PM 42.6564 -73.1883 282° West 158 182 5,200 -246 Descending Boston Center
Thu 02:28:25 PM 42.6664 -73.2392 285° West 158 182 4,900 -254 Descending Boston Center
Thu 02:29:23 PM 42.6744 -73.3014 280° West 158 182 4,700 -153 Descending Boston Center
Thu 02:30:23 PM 42.6864 -73.3494 289° West 158 182 4,600 -197 Descending Boston Center
Thu 02:31:25 PM 42.7006 -73.4147 286° West 163 188 4,300 -250 Descending Boston Center
Thu 02:32:23 PM 42.7125 -73.4658 288° West 163 188 4,100 -403 Descending Boston Center
Thu 02:33:24 PM 42.7181 -73.5336 276° West 168 193 3,500 -541 Descending Boston Center
Thu 02:34:25 PM 42.7281 -73.5906 283° West 168 193 3,000 -593 Descending Boston Center
Thu 02:34:55 PM 42.7358 -73.6331 284° West 170 196 2,600 -619 Descending Boston Center
Thu 02:36:02 PM 42.7478 -73.6983 284° West 169 194 2,000 -639 Descending Boston Center
Thu 02:36:57 PM 42.7492 -73.7464 272° West 134 154 1,300 -818 Descending Boston Center
Thu 02:37:52 PM 42.7489 -73.7831 269° West 98 113 500 -873 Descending Boston Center
Thu 02:39:00 PM 42.7333 -73.8000 270° West  Level FlightAware Approximate
Thu 02:46:00 PM 42.7491 -73.8020 270° West  Level Estimated
Thu 02:47:00 PM 42.7491 -73.8020 270° West  Level Estimated
Thu 02:48:00 PM 42.7491 -73.8020 270° West  Level Estimated

Login

Don't have an account? Register now (free) for customized features, flight alerts, and more!